sensor_id;sensor_type;location;lat;lon;timestamp;P1;durP1;ratioP1;P2;durP2;ratioP2
77544;SDS011;66672;50.328;7.610;2023-04-22T00:00:46;6.50;;;3.25;;
77544;SDS011;66672;50.328;7.610;2023-04-22T00:03:12;6.20;;;3.20;;
77544;SDS011;66672;50.328;7.610;2023-04-22T00:05:38;6.35;;;3.63;;
77544;SDS011;66672;50.328;7.610;2023-04-22T00:08:03;6.90;;;2.78;;
77544;SDS011;66672;50.328;7.610;2023-04-22T00:10:28;5.78;;;2.90;;
77544;SDS011;66672;50.328;7.610;2023-04-22T00:12:53;5.50;;;3.15;;
77544;SDS011;66672;50.328;7.610;2023-04-22T00:15:19;8.52;;;3.47;;
77544;SDS011;66672;50.328;7.610;2023-04-22T00:17:46;6.32;;;3.58;;
77544;SDS011;66672;50.328;7.610;2023-04-22T00:20:11;8.90;;;4.30;;
77544;SDS011;66672;50.328;7.610;2023-04-22T00:22:37;9.82;;;5.15;;
77544;SDS011;66672;50.328;7.610;2023-04-22T00:25:02;8.50;;;4.30;;
77544;SDS011;66672;50.328;7.610;2023-04-22T00:27:27;10.65;;;4.60;;
77544;SDS011;66672;50.328;7.610;2023-04-22T00:29:52;12.75;;;7.07;;
77544;SDS011;66672;50.328;7.610;2023-04-22T00:32:17;7.70;;;4.10;;
77544;SDS011;66672;50.328;7.610;2023-04-22T00:34:43;7.93;;;4.38;;
77544;SDS011;66672;50.328;7.610;2023-04-22T00:37:08;8.38;;;5.20;;
77544;SDS011;66672;50.328;7.610;2023-04-22T00:39:33;11.45;;;5.13;;
77544;SDS011;66672;50.328;7.610;2023-04-22T00:41:59;9.43;;;5.68;;
77544;SDS011;66672;50.328;7.610;2023-04-22T00:44:25;11.07;;;6.57;;
77544;SDS011;66672;50.328;7.610;2023-04-22T00:46:51;10.68;;;5.43;;
77544;SDS011;66672;50.328;7.610;2023-04-22T00:49:16;8.20;;;4.55;;
77544;SDS011;66672;50.328;7.610;2023-04-22T00:51:42;6.57;;;3.78;;
77544;SDS011;66672;50.328;7.610;2023-04-22T00:54:07;6.65;;;3.78;;
77544;SDS011;66672;50.328;7.610;2023-04-22T00:56:32;8.48;;;4.53;;
77544;SDS011;66672;50.328;7.610;2023-04-22T00:59:00;9.02;;;5.35;;
77544;SDS011;66672;50.328;7.610;2023-04-22T01:01:25;10.32;;;5.32;;
77544;SDS011;66672;50.328;7.610;2023-04-22T01:03:50;9.75;;;4.80;;
77544;SDS011;66672;50.328;7.610;2023-04-22T01:06:17;9.85;;;5.22;;
77544;SDS011;66672;50.328;7.610;2023-04-22T01:08:43;7.82;;;4.70;;
77544;SDS011;66672;50.328;7.610;2023-04-22T01:11:08;9.55;;;5.30;;
77544;SDS011;66672;50.328;7.610;2023-04-22T01:13:33;12.00;;;4.85;;
77544;SDS011;66672;50.328;7.610;2023-04-22T01:15:59;10.80;;;6.07;;
77544;SDS011;66672;50.328;7.610;2023-04-22T01:18:25;8.68;;;4.72;;
77544;SDS011;66672;50.328;7.610;2023-04-22T01:20:51;10.38;;;5.63;;
77544;SDS011;66672;50.328;7.610;2023-04-22T01:23:20;10.32;;;5.57;;
77544;SDS011;66672;50.328;7.610;2023-04-22T01:25:46;9.55;;;5.22;;
77544;SDS011;66672;50.328;7.610;2023-04-22T01:28:11;9.75;;;5.35;;
77544;SDS011;66672;50.328;7.610;2023-04-22T01:30:36;9.05;;;5.38;;
77544;SDS011;66672;50.328;7.610;2023-04-22T01:33:02;7.05;;;4.03;;
77544;SDS011;66672;50.328;7.610;2023-04-22T01:35:27;10.63;;;6.68;;
77544;SDS011;66672;50.328;7.610;2023-04-22T01:37:54;11.05;;;5.90;;
77544;SDS011;66672;50.328;7.610;2023-04-22T01:40:21;8.68;;;5.30;;
77544;SDS011;66672;50.328;7.610;2023-04-22T01:42:46;10.18;;;6.38;;
77544;SDS011;66672;50.328;7.610;2023-04-22T01:45:12;8.25;;;4.95;;
77544;SDS011;66672;50.328;7.610;2023-04-22T01:47:37;8.50;;;4.70;;
77544;SDS011;66672;50.328;7.610;2023-04-22T01:50:02;9.15;;;5.80;;
77544;SDS011;66672;50.328;7.610;2023-04-22T01:52:28;11.48;;;5.60;;
77544;SDS011;66672;50.328;7.610;2023-04-22T01:54:53;8.10;;;5.15;;
77544;SDS011;66672;50.328;7.610;2023-04-22T01:57:19;9.07;;;5.15;;
77544;SDS011;66672;50.328;7.610;2023-04-22T01:59:44;9.68;;;4.63;;
77544;SDS011;66672;50.328;7.610;2023-04-22T02:02:09;8.65;;;5.10;;
77544;SDS011;66672;50.328;7.610;2023-04-22T02:04:34;8.02;;;4.45;;
77544;SDS011;66672;50.328;7.610;2023-04-22T02:06:59;9.35;;;4.68;;
77544;SDS011;66672;50.328;7.610;2023-04-22T02:09:25;9.38;;;3.70;;
77544;SDS011;66672;50.328;7.610;2023-04-22T02:11:50;6.65;;;3.55;;
77544;SDS011;66672;50.328;7.610;2023-04-22T02:14:15;8.07;;;3.60;;
77544;SDS011;66672;50.328;7.610;2023-04-22T02:16:41;6.30;;;3.50;;
77544;SDS011;66672;50.328;7.610;2023-04-22T02:19:06;9.23;;;3.95;;
77544;SDS011;66672;50.328;7.610;2023-04-22T02:21:31;6.25;;;3.65;;
77544;SDS011;66672;50.328;7.610;2023-04-22T02:23:57;8.80;;;4.38;;
77544;SDS011;66672;50.328;7.610;2023-04-22T02:26:22;6.15;;;3.85;;
77544;SDS011;66672;50.328;7.610;2023-04-22T02:28:48;8.00;;;3.70;;
77544;SDS011;66672;50.328;7.610;2023-04-22T02:31:14;7.22;;;3.40;;
77544;SDS011;66672;50.328;7.610;2023-04-22T02:33:39;6.40;;;3.25;;
77544;SDS011;66672;50.328;7.610;2023-04-22T02:36:04;5.85;;;3.58;;
77544;SDS011;66672;50.328;7.610;2023-04-22T02:38:29;8.82;;;2.78;;
77544;SDS011;66672;50.328;7.610;2023-04-22T02:40:55;6.43;;;2.88;;
77544;SDS011;66672;50.328;7.610;2023-04-22T02:43:20;5.85;;;2.95;;
77544;SDS011;66672;50.328;7.610;2023-04-22T02:45:45;4.80;;;2.58;;
77544;SDS011;66672;50.328;7.610;2023-04-22T02:48:10;7.35;;;2.90;;
77544;SDS011;66672;50.328;7.610;2023-04-22T02:50:35;6.90;;;3.20;;
77544;SDS011;66672;50.328;7.610;2023-04-22T02:53:00;4.70;;;2.65;;
77544;SDS011;66672;50.328;7.610;2023-04-22T02:55:26;5.38;;;3.20;;
77544;SDS011;66672;50.328;7.610;2023-04-22T02:57:52;5.57;;;2.85;;
77544;SDS011;66672;50.328;7.610;2023-04-22T03:00:17;5.93;;;3.20;;
77544;SDS011;66672;50.328;7.610;2023-04-22T03:02:42;5.72;;;2.90;;
77544;SDS011;66672;50.328;7.610;2023-04-22T03:05:08;5.22;;;2.78;;
77544;SDS011;66672;50.328;7.610;2023-04-22T03:07:34;5.28;;;2.78;;
77544;SDS011;66672;50.328;7.610;2023-04-22T03:09:59;4.70;;;2.72;;
77544;SDS011;66672;50.328;7.610;2023-04-22T03:12:24;5.55;;;2.60;;
77544;SDS011;66672;50.328;7.610;2023-04-22T03:14:49;5.03;;;2.50;;
77544;SDS011;66672;50.328;7.610;2023-04-22T03:17:14;6.18;;;3.00;;
77544;SDS011;66672;50.328;7.610;2023-04-22T03:19:40;6.22;;;2.80;;
77544;SDS011;66672;50.328;7.610;2023-04-22T03:22:05;5.30;;;2.90;;
77544;SDS011;66672;50.328;7.610;2023-04-22T03:24:30;4.70;;;2.60;;
77544;SDS011;66672;50.328;7.610;2023-04-22T03:26:55;5.43;;;2.67;;
77544;SDS011;66672;50.328;7.610;2023-04-22T03:29:20;5.97;;;2.78;;
77544;SDS011;66672;50.328;7.610;2023-04-22T03:31:45;5.32;;;2.72;;
77544;SDS011;66672;50.328;7.610;2023-04-22T03:34:11;5.32;;;2.88;;
77544;SDS011;66672;50.328;7.610;2023-04-22T03:36:36;4.25;;;2.55;;
77544;SDS011;66672;50.328;7.610;2023-04-22T03:39:01;7.60;;;2.90;;
77544;SDS011;66672;50.328;7.610;2023-04-22T03:41:26;4.45;;;2.70;;
77544;SDS011;66672;50.328;7.610;2023-04-22T03:43:51;6.18;;;3.00;;
77544;SDS011;66672;50.328;7.610;2023-04-22T03:46:17;5.13;;;2.63;;
77544;SDS011;66672;50.328;7.610;2023-04-22T03:48:42;4.05;;;2.20;;
77544;SDS011;66672;50.328;7.610;2023-04-22T03:51:07;5.30;;;2.97;;
77544;SDS011;66672;50.328;7.610;2023-04-22T03:53:32;8.80;;;2.95;;
77544;SDS011;66672;50.328;7.610;2023-04-22T03:55:57;5.68;;;3.40;;
77544;SDS011;66672;50.328;7.610;2023-04-22T03:58:23;5.18;;;2.42;;
77544;SDS011;66672;50.328;7.610;2023-04-22T04:00:48;6.50;;;2.60;;
77544;SDS011;66672;50.328;7.610;2023-04-22T04:03:13;7.03;;;2.72;;
77544;SDS011;66672;50.328;7.610;2023-04-22T04:05:38;5.43;;;3.00;;
77544;SDS011;66672;50.328;7.610;2023-04-22T04:08:03;4.80;;;2.50;;
77544;SDS011;66672;50.328;7.610;2023-04-22T04:10:29;4.93;;;2.67;;
77544;SDS011;66672;50.328;7.610;2023-04-22T04:12:54;5.47;;;2.38;;
77544;SDS011;66672;50.328;7.610;2023-04-22T04:15:19;5.03;;;2.83;;
77544;SDS011;66672;50.328;7.610;2023-04-22T04:17:45;5.88;;;2.95;;
77544;SDS011;66672;50.328;7.610;2023-04-22T04:20:10;5.32;;;2.83;;
77544;SDS011;66672;50.328;7.610;2023-04-22T04:22:36;4.55;;;2.45;;
77544;SDS011;66672;50.328;7.610;2023-04-22T04:25:02;4.68;;;2.90;;
77544;SDS011;66672;50.328;7.610;2023-04-22T04:27:27;4.60;;;2.47;;
77544;SDS011;66672;50.328;7.610;2023-04-22T04:29:52;5.28;;;2.97;;
77544;SDS011;66672;50.328;7.610;2023-04-22T04:32:19;5.43;;;2.72;;
77544;SDS011;66672;50.328;7.610;2023-04-22T04:34:45;5.07;;;2.83;;
77544;SDS011;66672;50.328;7.610;2023-04-22T04:37:11;4.32;;;2.50;;
77544;SDS011;66672;50.328;7.610;2023-04-22T04:39:36;6.45;;;2.65;;
77544;SDS011;66672;50.328;7.610;2023-04-22T04:42:01;6.13;;;2.72;;
77544;SDS011;66672;50.328;7.610;2023-04-22T04:44:27;5.88;;;2.80;;
77544;SDS011;66672;50.328;7.610;2023-04-22T04:46:55;6.65;;;2.90;;
77544;SDS011;66672;50.328;7.610;2023-04-22T04:49:21;5.20;;;2.80;;
77544;SDS011;66672;50.328;7.610;2023-04-22T04:51:46;5.43;;;2.95;;
77544;SDS011;66672;50.328;7.610;2023-04-22T04:54:12;5.72;;;2.92;;
77544;SDS011;66672;50.328;7.610;2023-04-22T04:56:37;6.38;;;3.38;;
77544;SDS011;66672;50.328;7.610;2023-04-22T04:59:02;6.28;;;3.30;;
77544;SDS011;66672;50.328;7.610;2023-04-22T05:01:27;5.95;;;3.42;;
77544;SDS011;66672;50.328;7.610;2023-04-22T05:03:53;7.45;;;3.28;;
77544;SDS011;66672;50.328;7.610;2023-04-22T05:06:18;6.05;;;3.10;;
77544;SDS011;66672;50.328;7.610;2023-04-22T05:08:44;5.72;;;3.25;;
77544;SDS011;66672;50.328;7.610;2023-04-22T05:11:10;5.50;;;3.22;;
77544;SDS011;66672;50.328;7.610;2023-04-22T05:13:35;5.65;;;3.00;;
77544;SDS011;66672;50.328;7.610;2023-04-22T05:16:00;6.25;;;3.42;;
77544;SDS011;66672;50.328;7.610;2023-04-22T05:18:25;6.25;;;3.35;;
77544;SDS011;66672;50.328;7.610;2023-04-22T05:20:51;7.53;;;4.18;;
77544;SDS011;66672;50.328;7.610;2023-04-22T05:23:16;6.55;;;3.70;;
77544;SDS011;66672;50.328;7.610;2023-04-22T05:25:41;6.22;;;3.80;;
77544;SDS011;66672;50.328;7.610;2023-04-22T05:28:06;6.45;;;3.42;;
77544;SDS011;66672;50.328;7.610;2023-04-22T05:30:32;8.02;;;3.45;;
77544;SDS011;66672;50.328;7.610;2023-04-22T05:32:57;5.78;;;3.55;;
77544;SDS011;66672;50.328;7.610;2023-04-22T05:35:22;5.32;;;3.35;;
77544;SDS011;66672;50.328;7.610;2023-04-22T05:37:47;6.40;;;3.30;;
77544;SDS011;66672;50.328;7.610;2023-04-22T05:40:13;7.10;;;3.25;;
77544;SDS011;66672;50.328;7.610;2023-04-22T05:42:38;6.68;;;3.20;;
77544;SDS011;66672;50.328;7.610;2023-04-22T05:45:03;6.28;;;3.10;;
77544;SDS011;66672;50.328;7.610;2023-04-22T05:47:29;6.85;;;3.42;;
77544;SDS011;66672;50.328;7.610;2023-04-22T05:49:54;8.65;;;3.60;;
77544;SDS011;66672;50.328;7.610;2023-04-22T05:52:19;7.10;;;3.80;;
77544;SDS011;66672;50.328;7.610;2023-04-22T05:54:44;7.47;;;4.05;;
77544;SDS011;66672;50.328;7.610;2023-04-22T05:57:09;8.75;;;4.43;;
77544;SDS011;66672;50.328;7.610;2023-04-22T05:59:35;9.07;;;5.80;;
77544;SDS011;66672;50.328;7.610;2023-04-22T06:02:00;11.07;;;6.05;;
77544;SDS011;66672;50.328;7.610;2023-04-22T06:04:25;7.95;;;5.25;;
77544;SDS011;66672;50.328;7.610;2023-04-22T06:06:50;6.38;;;3.47;;
77544;SDS011;66672;50.328;7.610;2023-04-22T06:09:18;6.28;;;3.40;;
77544;SDS011;66672;50.328;7.610;2023-04-22T06:11:43;7.97;;;3.88;;
77544;SDS011;66672;50.328;7.610;2023-04-22T06:14:08;7.10;;;3.42;;
77544;SDS011;66672;50.328;7.610;2023-04-22T06:16:33;6.00;;;3.95;;
77544;SDS011;66672;50.328;7.610;2023-04-22T06:18:59;6.70;;;3.15;;
77544;SDS011;66672;50.328;7.610;2023-04-22T06:21:24;6.43;;;3.22;;
77544;SDS011;66672;50.328;7.610;2023-04-22T06:23:49;5.72;;;3.15;;
77544;SDS011;66672;50.328;7.610;2023-04-22T06:26:14;6.05;;;3.20;;
77544;SDS011;66672;50.328;7.610;2023-04-22T06:28:39;6.30;;;3.13;;
77544;SDS011;66672;50.328;7.610;2023-04-22T06:31:05;6.10;;;2.80;;
77544;SDS011;66672;50.328;7.610;2023-04-22T06:33:30;6.32;;;3.20;;
77544;SDS011;66672;50.328;7.610;2023-04-22T06:35:55;5.55;;;3.15;;
77544;SDS011;66672;50.328;7.610;2023-04-22T06:38:20;5.35;;;3.22;;
77544;SDS011;66672;50.328;7.610;2023-04-22T06:40:45;6.85;;;3.38;;
77544;SDS011;66672;50.328;7.610;2023-04-22T06:43:11;6.55;;;2.97;;
77544;SDS011;66672;50.328;7.610;2023-04-22T06:45:36;7.13;;;3.78;;
77544;SDS011;66672;50.328;7.610;2023-04-22T06:48:01;7.40;;;4.13;;
77544;SDS011;66672;50.328;7.610;2023-04-22T06:50:26;6.88;;;3.85;;
77544;SDS011;66672;50.328;7.610;2023-04-22T06:52:51;6.78;;;3.92;;
77544;SDS011;66672;50.328;7.610;2023-04-22T06:55:17;6.13;;;4.22;;
77544;SDS011;66672;50.328;7.610;2023-04-22T06:57:42;7.15;;;3.67;;
77544;SDS011;66672;50.328;7.610;2023-04-22T07:00:07;6.40;;;3.95;;
77544;SDS011;66672;50.328;7.610;2023-04-22T07:02:33;5.80;;;3.50;;
77544;SDS011;66672;50.328;7.610;2023-04-22T07:04:58;6.55;;;3.60;;
77544;SDS011;66672;50.328;7.610;2023-04-22T07:07:23;6.75;;;3.95;;
77544;SDS011;66672;50.328;7.610;2023-04-22T07:09:48;6.32;;;3.53;;
77544;SDS011;66672;50.328;7.610;2023-04-22T07:12:14;7.65;;;3.60;;
77544;SDS011;66672;50.328;7.610;2023-04-22T07:14:42;5.90;;;3.58;;
77544;SDS011;66672;50.328;7.610;2023-04-22T07:17:08;5.82;;;3.40;;
77544;SDS011;66672;50.328;7.610;2023-04-22T07:19:33;4.97;;;2.78;;
77544;SDS011;66672;50.328;7.610;2023-04-22T07:21:59;6.43;;;2.83;;
77544;SDS011;66672;50.328;7.610;2023-04-22T07:24:24;4.35;;;2.50;;
77544;SDS011;66672;50.328;7.610;2023-04-22T07:26:50;6.22;;;2.85;;
77544;SDS011;66672;50.328;7.610;2023-04-22T07:29:15;4.70;;;2.60;;
77544;SDS011;66672;50.328;7.610;2023-04-22T07:31:40;3.88;;;2.17;;
77544;SDS011;66672;50.328;7.610;2023-04-22T07:34:05;4.38;;;2.45;;
77544;SDS011;66672;50.328;7.610;2023-04-22T07:36:30;5.03;;;2.75;;
77544;SDS011;66672;50.328;7.610;2023-04-22T07:38:56;4.93;;;2.15;;
77544;SDS011;66672;50.328;7.610;2023-04-22T07:41:22;4.07;;;2.58;;
77544;SDS011;66672;50.328;7.610;2023-04-22T07:43:47;4.38;;;2.40;;
77544;SDS011;66672;50.328;7.610;2023-04-22T07:46:12;8.20;;;3.15;;
77544;SDS011;66672;50.328;7.610;2023-04-22T07:48:37;6.03;;;2.15;;
77544;SDS011;66672;50.328;7.610;2023-04-22T07:51:03;4.68;;;2.63;;
77544;SDS011;66672;50.328;7.610;2023-04-22T07:53:28;3.55;;;2.00;;
77544;SDS011;66672;50.328;7.610;2023-04-22T07:55:54;4.25;;;2.30;;
77544;SDS011;66672;50.328;7.610;2023-04-22T07:58:19;5.03;;;2.22;;
77544;SDS011;66672;50.328;7.610;2023-04-22T08:00:45;4.32;;;2.65;;
77544;SDS011;66672;50.328;7.610;2023-04-22T08:03:10;3.92;;;2.25;;
77544;SDS011;66672;50.328;7.610;2023-04-22T08:05:35;3.85;;;2.10;;
77544;SDS011;66672;50.328;7.610;2023-04-22T08:08:00;4.90;;;2.60;;
77544;SDS011;66672;50.328;7.610;2023-04-22T08:10:25;4.13;;;2.45;;
77544;SDS011;66672;50.328;7.610;2023-04-22T08:12:51;6.10;;;2.30;;
77544;SDS011;66672;50.328;7.610;2023-04-22T08:15:16;3.45;;;1.92;;
77544;SDS011;66672;50.328;7.610;2023-04-22T08:17:41;4.07;;;2.30;;
77544;SDS011;66672;50.328;7.610;2023-04-22T08:20:07;4.80;;;2.25;;
77544;SDS011;66672;50.328;7.610;2023-04-22T08:22:32;3.75;;;1.90;;
77544;SDS011;66672;50.328;7.610;2023-04-22T08:24:58;4.60;;;2.50;;
77544;SDS011;66672;50.328;7.610;2023-04-22T08:27:23;5.32;;;2.40;;
77544;SDS011;66672;50.328;7.610;2023-04-22T08:29:48;4.18;;;1.98;;
77544;SDS011;66672;50.328;7.610;2023-04-22T08:32:14;3.88;;;2.00;;
77544;SDS011;66672;50.328;7.610;2023-04-22T08:34:39;4.35;;;2.10;;
77544;SDS011;66672;50.328;7.610;2023-04-22T08:37:04;3.88;;;1.98;;
77544;SDS011;66672;50.328;7.610;2023-04-22T08:39:29;5.63;;;2.40;;
77544;SDS011;66672;50.328;7.610;2023-04-22T08:41:55;4.72;;;2.22;;
77544;SDS011;66672;50.328;7.610;2023-04-22T08:44:21;7.40;;;3.90;;
77544;SDS011;66672;50.328;7.610;2023-04-22T08:46:46;7.25;;;3.85;;
77544;SDS011;66672;50.328;7.610;2023-04-22T08:49:16;4.82;;;2.67;;
77544;SDS011;66672;50.328;7.610;2023-04-22T08:51:41;4.57;;;2.20;;
77544;SDS011;66672;50.328;7.610;2023-04-22T08:54:07;3.75;;;2.10;;
77544;SDS011;66672;50.328;7.610;2023-04-22T08:56:32;4.05;;;1.98;;
77544;SDS011;66672;50.328;7.610;2023-04-22T08:58:58;5.10;;;1.90;;
77544;SDS011;66672;50.328;7.610;2023-04-22T09:01:24;3.97;;;1.92;;
77544;SDS011;66672;50.328;7.610;2023-04-22T09:03:49;4.63;;;2.08;;
77544;SDS011;66672;50.328;7.610;2023-04-22T09:06:15;4.38;;;1.80;;
77544;SDS011;66672;50.328;7.610;2023-04-22T09:08:41;4.47;;;1.80;;
77544;SDS011;66672;50.328;7.610;2023-04-22T09:11:07;5.72;;;3.40;;
77544;SDS011;66672;50.328;7.610;2023-04-22T09:13:32;6.25;;;2.55;;
77544;SDS011;66672;50.328;7.610;2023-04-22T09:15:58;3.45;;;2.00;;
77544;SDS011;66672;50.328;7.610;2023-04-22T09:18:23;6.82;;;4.60;;
77544;SDS011;66672;50.328;7.610;2023-04-22T09:20:48;3.70;;;1.85;;
77544;SDS011;66672;50.328;7.610;2023-04-22T09:23:18;3.60;;;1.75;;
77544;SDS011;66672;50.328;7.610;2023-04-22T09:25:43;3.58;;;1.98;;
77544;SDS011;66672;50.328;7.610;2023-04-22T09:28:15;4.38;;;1.70;;
77544;SDS011;66672;50.328;7.610;2023-04-22T09:30:41;3.92;;;1.90;;
77544;SDS011;66672;50.328;7.610;2023-04-22T09:33:08;2.95;;;1.83;;
77544;SDS011;66672;50.328;7.610;2023-04-22T09:35:34;2.83;;;1.80;;
77544;SDS011;66672;50.328;7.610;2023-04-22T09:38:00;2.67;;;1.50;;
77544;SDS011;66672;50.328;7.610;2023-04-22T09:40:26;3.63;;;1.75;;
77544;SDS011;66672;50.328;7.610;2023-04-22T09:42:53;4.38;;;2.15;;
77544;SDS011;66672;50.328;7.610;2023-04-22T09:47:53;2.13;;;1.40;;
77544;SDS011;66672;50.328;7.610;2023-04-22T09:50:19;4.60;;;2.45;;
77544;SDS011;66672;50.328;7.610;2023-04-22T09:52:51;4.95;;;1.77;;
77544;SDS011;66672;50.328;7.610;2023-04-22T09:55:17;2.97;;;1.83;;
77544;SDS011;66672;50.328;7.610;2023-04-22T09:57:44;3.55;;;1.70;;
77544;SDS011;66672;50.328;7.610;2023-04-22T10:00:10;3.17;;;1.50;;
77544;SDS011;66672;50.328;7.610;2023-04-22T10:02:37;3.90;;;1.85;;
77544;SDS011;66672;50.328;7.610;2023-04-22T10:05:03;3.58;;;1.70;;
77544;SDS011;66672;50.328;7.610;2023-04-22T10:07:28;3.13;;;1.45;;
77544;SDS011;66672;50.328;7.610;2023-04-22T10:09:55;4.03;;;1.60;;
77544;SDS011;66672;50.328;7.610;2023-04-22T10:12:21;3.83;;;1.90;;
77544;SDS011;66672;50.328;7.610;2023-04-22T10:14:46;5.80;;;1.90;;
77544;SDS011;66672;50.328;7.610;2023-04-22T10:17:11;6.72;;;1.90;;
77544;SDS011;66672;50.328;7.610;2023-04-22T10:19:37;3.17;;;1.45;;
77544;SDS011;66672;50.328;7.610;2023-04-22T10:22:03;4.55;;;1.67;;
77544;SDS011;66672;50.328;7.610;2023-04-22T10:24:33;5.95;;;1.83;;
77544;SDS011;66672;50.328;7.610;2023-04-22T10:26:59;2.78;;;1.60;;
77544;SDS011;66672;50.328;7.610;2023-04-22T10:29:33;4.20;;;1.90;;
77544;SDS011;66672;50.328;7.610;2023-04-22T10:32:32;5.32;;;1.70;;
77544;SDS011;66672;50.328;7.610;2023-04-22T10:35:05;8.55;;;3.70;;
77544;SDS011;66672;50.328;7.610;2023-04-22T10:37:30;2.90;;;1.65;;
77544;SDS011;66672;50.328;7.610;2023-04-22T10:42:51;2.78;;;1.70;;
77544;SDS011;66672;50.328;7.610;2023-04-22T10:45:17;7.13;;;2.20;;
77544;SDS011;66672;50.328;7.610;2023-04-22T10:47:42;3.65;;;1.70;;
77544;SDS011;66672;50.328;7.610;2023-04-22T10:52:36;5.03;;;2.03;;
77544;SDS011;66672;50.328;7.610;2023-04-22T10:55:02;4.38;;;1.90;;
77544;SDS011;66672;50.328;7.610;2023-04-22T10:57:28;4.30;;;2.72;;
77544;SDS011;66672;50.328;7.610;2023-04-22T10:59:57;3.60;;;1.73;;
77544;SDS011;66672;50.328;7.610;2023-04-22T11:02:23;5.65;;;1.90;;
77544;SDS011;66672;50.328;7.610;2023-04-22T11:04:49;3.80;;;1.80;;
77544;SDS011;66672;50.328;7.610;2023-04-22T11:07:27;4.82;;;2.55;;
77544;SDS011;66672;50.328;7.610;2023-04-22T11:15:15;6.82;;;3.70;;
77544;SDS011;66672;50.328;7.610;2023-04-22T11:17:41;4.05;;;2.05;;
77544;SDS011;66672;50.328;7.610;2023-04-22T11:20:07;4.10;;;2.38;;
77544;SDS011;66672;50.328;7.610;2023-04-22T11:22:33;4.05;;;1.90;;
77544;SDS011;66672;50.328;7.610;2023-04-22T11:24:59;5.13;;;1.92;;
77544;SDS011;66672;50.328;7.610;2023-04-22T11:27:25;5.05;;;1.92;;
77544;SDS011;66672;50.328;7.610;2023-04-22T11:30:00;3.75;;;1.80;;
77544;SDS011;66672;50.328;7.610;2023-04-22T11:32:26;5.03;;;2.00;;
77544;SDS011;66672;50.328;7.610;2023-04-22T11:34:51;4.18;;;1.70;;
77544;SDS011;66672;50.328;7.610;2023-04-22T11:37:20;4.22;;;2.05;;
77544;SDS011;66672;50.328;7.610;2023-04-22T11:39:45;3.33;;;1.55;;
77544;SDS011;66672;50.328;7.610;2023-04-22T11:42:13;6.25;;;2.22;;
77544;SDS011;66672;50.328;7.610;2023-04-22T11:44:38;5.82;;;2.20;;
77544;SDS011;66672;50.328;7.610;2023-04-22T11:47:05;4.32;;;2.13;;
77544;SDS011;66672;50.328;7.610;2023-04-22T11:49:30;6.22;;;3.25;;
77544;SDS011;66672;50.328;7.610;2023-04-22T11:51:58;3.60;;;1.67;;
77544;SDS011;66672;50.328;7.610;2023-04-22T11:54:34;6.38;;;1.80;;
77544;SDS011;66672;50.328;7.610;2023-04-22T11:57:00;3.90;;;1.70;;
77544;SDS011;66672;50.328;7.610;2023-04-22T11:59:26;4.03;;;1.65;;
77544;SDS011;66672;50.328;7.610;2023-04-22T12:01:52;4.07;;;1.88;;
77544;SDS011;66672;50.328;7.610;2023-04-22T12:04:19;2.60;;;1.42;;
77544;SDS011;66672;50.328;7.610;2023-04-22T12:06:45;3.00;;;1.60;;
77544;SDS011;66672;50.328;7.610;2023-04-22T12:09:10;3.85;;;1.90;;
77544;SDS011;66672;50.328;7.610;2023-04-22T12:11:37;3.83;;;2.00;;
77544;SDS011;66672;50.328;7.610;2023-04-22T12:14:05;3.80;;;2.13;;
77544;SDS011;66672;50.328;7.610;2023-04-22T12:16:38;6.80;;;1.83;;
77544;SDS011;66672;50.328;7.610;2023-04-22T12:19:03;3.53;;;1.92;;
77544;SDS011;66672;50.328;7.610;2023-04-22T12:21:29;3.40;;;2.10;;
77544;SDS011;66672;50.328;7.610;2023-04-22T12:23:59;4.53;;;1.83;;
77544;SDS011;66672;50.328;7.610;2023-04-22T12:26:28;5.03;;;2.30;;
77544;SDS011;66672;50.328;7.610;2023-04-22T12:28:54;4.85;;;2.00;;
77544;SDS011;66672;50.328;7.610;2023-04-22T12:31:19;7.45;;;2.17;;
77544;SDS011;66672;50.328;7.610;2023-04-22T12:33:45;6.38;;;2.38;;
77544;SDS011;66672;50.328;7.610;2023-04-22T12:36:11;6.72;;;1.80;;
77544;SDS011;66672;50.328;7.610;2023-04-22T12:38:36;4.95;;;2.05;;
77544;SDS011;66672;50.328;7.610;2023-04-22T12:41:02;4.90;;;2.30;;
77544;SDS011;66672;50.328;7.610;2023-04-22T12:43:28;5.30;;;2.00;;
77544;SDS011;66672;50.328;7.610;2023-04-22T12:45:53;7.30;;;2.85;;
77544;SDS011;66672;50.328;7.610;2023-04-22T12:48:18;4.93;;;2.03;;
77544;SDS011;66672;50.328;7.610;2023-04-22T12:50:44;3.92;;;1.67;;
77544;SDS011;66672;50.328;7.610;2023-04-22T12:53:09;5.18;;;1.92;;
77544;SDS011;66672;50.328;7.610;2023-04-22T12:55:34;3.70;;;2.13;;
77544;SDS011;66672;50.328;7.610;2023-04-22T12:57:59;3.63;;;1.77;;
77544;SDS011;66672;50.328;7.610;2023-04-22T13:00:25;3.55;;;2.03;;
77544;SDS011;66672;50.328;7.610;2023-04-22T13:02:50;4.38;;;2.22;;
77544;SDS011;66672;50.328;7.610;2023-04-22T13:05:16;5.18;;;2.05;;
77544;SDS011;66672;50.328;7.610;2023-04-22T13:07:42;4.30;;;1.90;;
77544;SDS011;66672;50.328;7.610;2023-04-22T13:10:09;5.43;;;2.13;;
77544;SDS011;66672;50.328;7.610;2023-04-22T13:12:35;4.13;;;2.30;;
77544;SDS011;66672;50.328;7.610;2023-04-22T13:15:00;4.03;;;2.13;;
77544;SDS011;66672;50.328;7.610;2023-04-22T13:17:26;5.18;;;2.17;;
77544;SDS011;66672;50.328;7.610;2023-04-22T13:19:51;6.40;;;3.05;;
77544;SDS011;66672;50.328;7.610;2023-04-22T13:22:17;4.85;;;2.05;;
77544;SDS011;66672;50.328;7.610;2023-04-22T13:24:42;4.57;;;1.90;;
77544;SDS011;66672;50.328;7.610;2023-04-22T13:27:07;3.28;;;1.83;;
77544;SDS011;66672;50.328;7.610;2023-04-22T13:29:33;4.38;;;1.70;;
77544;SDS011;66672;50.328;7.610;2023-04-22T13:31:58;3.35;;;1.80;;
77544;SDS011;66672;50.328;7.610;2023-04-22T13:34:23;3.33;;;1.52;;
77544;SDS011;66672;50.328;7.610;2023-04-22T13:36:48;4.65;;;1.77;;
77544;SDS011;66672;50.328;7.610;2023-04-22T13:39:14;2.95;;;1.50;;
77544;SDS011;66672;50.328;7.610;2023-04-22T13:41:39;4.30;;;1.70;;
77544;SDS011;66672;50.328;7.610;2023-04-22T13:44:05;4.18;;;1.80;;
77544;SDS011;66672;50.328;7.610;2023-04-22T13:46:30;5.45;;;1.95;;
77544;SDS011;66672;50.328;7.610;2023-04-22T13:48:55;4.18;;;1.80;;
77544;SDS011;66672;50.328;7.610;2023-04-22T13:51:21;4.90;;;1.95;;
77544;SDS011;66672;50.328;7.610;2023-04-22T13:53:46;4.88;;;2.00;;
77544;SDS011;66672;50.328;7.610;2023-04-22T13:56:11;3.08;;;1.67;;
77544;SDS011;66672;50.328;7.610;2023-04-22T13:58:40;4.03;;;1.60;;
77544;SDS011;66672;50.328;7.610;2023-04-22T14:01:06;2.60;;;1.70;;
77544;SDS011;66672;50.328;7.610;2023-04-22T14:03:32;3.00;;;1.48;;
77544;SDS011;66672;50.328;7.610;2023-04-22T14:05:57;3.30;;;1.90;;
77544;SDS011;66672;50.328;7.610;2023-04-22T14:08:22;3.13;;;1.63;;
77544;SDS011;66672;50.328;7.610;2023-04-22T14:10:47;5.45;;;2.85;;
77544;SDS011;66672;50.328;7.610;2023-04-22T14:13:12;4.30;;;1.50;;
77544;SDS011;66672;50.328;7.610;2023-04-22T14:15:38;2.95;;;1.35;;
77544;SDS011;66672;50.328;7.610;2023-04-22T14:18:03;5.70;;;3.60;;
77544;SDS011;66672;50.328;7.610;2023-04-22T14:20:28;4.88;;;1.90;;
77544;SDS011;66672;50.328;7.610;2023-04-22T14:22:53;3.75;;;1.90;;
77544;SDS011;66672;50.328;7.610;2023-04-22T14:25:19;5.85;;;1.70;;
77544;SDS011;66672;50.328;7.610;2023-04-22T14:27:44;3.67;;;1.63;;
77544;SDS011;66672;50.328;7.610;2023-04-22T14:30:09;3.38;;;1.80;;
77544;SDS011;66672;50.328;7.610;2023-04-22T14:32:35;4.38;;;1.75;;
77544;SDS011;66672;50.328;7.610;2023-04-22T14:35:00;3.80;;;1.80;;
77544;SDS011;66672;50.328;7.610;2023-04-22T14:37:25;3.63;;;1.60;;
77544;SDS011;66672;50.328;7.610;2023-04-22T14:39:51;5.60;;;1.95;;
77544;SDS011;66672;50.328;7.610;2023-04-22T14:42:16;4.82;;;3.30;;
77544;SDS011;66672;50.328;7.610;2023-04-22T14:44:43;4.28;;;2.20;;
77544;SDS011;66672;50.328;7.610;2023-04-22T14:47:08;3.13;;;1.67;;
77544;SDS011;66672;50.328;7.610;2023-04-22T14:49:33;4.75;;;2.00;;
77544;SDS011;66672;50.328;7.610;2023-04-22T14:51:59;5.05;;;2.20;;